Terminal Aerodrome Forecast
Issued by NWS

Home | Current Version | Previous Version | Text Only | Print | Product List | Glossary On
Versions: 1 2 3 4 5 6 7 8 9 10 11 12 13 14 15 16 17 18
000
FTUS45 KSLC 191723
TAFOGD
TAF
KOGD 191723Z 1918/2018 VRB05KT P6SM SCT060 BKN080
     FM192000 27006KT P6SM VCSH SCT070 BKN090
     FM200300 17006KT P6SM SCT070 SCT120
     FM201500 33007KT P6SM FEW070 SCT200=

USA.gov is the U.S. government's official web portal to all federal, state and local government web resources and services.